sensor_id;sensor_type;location;lat;lon;timestamp;P1;durP1;ratioP1;P2;durP2;ratioP2
5710;SDS011;61291;52.524;13.422;2024-02-21T00:02:07;73.70;;;67.10;;
5710;SDS011;61291;52.524;13.422;2024-02-21T00:04:32;72.30;;;66.30;;
5710;SDS011;61291;52.524;13.422;2024-02-21T00:06:58;80.70;;;71.33;;
5710;SDS011;61291;52.524;13.422;2024-02-21T00:09:24;76.43;;;70.13;;
5710;SDS011;61291;52.524;13.422;2024-02-21T00:11:49;77.07;;;69.73;;
5710;SDS011;61291;52.524;13.422;2024-02-21T00:14:15;73.70;;;67.00;;
5710;SDS011;61291;52.524;13.422;2024-02-21T00:16:40;77.03;;;69.50;;
5710;SDS011;61291;52.524;13.422;2024-02-21T00:19:06;76.73;;;69.73;;
5710;SDS011;61291;52.524;13.422;2024-02-21T00:21:31;75.57;;;69.43;;
5710;SDS011;61291;52.524;13.422;2024-02-21T00:23:57;72.70;;;66.60;;
5710;SDS011;61291;52.524;13.422;2024-02-21T00:26:22;75.70;;;68.40;;
5710;SDS011;61291;52.524;13.422;2024-02-21T00:28:48;73.80;;;67.83;;
5710;SDS011;61291;52.524;13.422;2024-02-21T00:31:13;73.80;;;67.00;;
5710;SDS011;61291;52.524;13.422;2024-02-21T00:33:39;75.40;;;68.50;;
5710;SDS011;61291;52.524;13.422;2024-02-21T00:36:04;78.00;;;67.00;;
5710;SDS011;61291;52.524;13.422;2024-02-21T00:38:30;75.60;;;67.87;;
5710;SDS011;61291;52.524;13.422;2024-02-21T00:40:55;74.27;;;67.50;;
5710;SDS011;61291;52.524;13.422;2024-02-21T00:43:21;73.70;;;67.10;;
5710;SDS011;61291;52.524;13.422;2024-02-21T00:45:48;75.40;;;68.17;;
5710;SDS011;61291;52.524;13.422;2024-02-21T00:48:14;72.67;;;67.27;;
5710;SDS011;61291;52.524;13.422;2024-02-21T00:50:39;75.43;;;68.83;;
5710;SDS011;61291;52.524;13.422;2024-02-21T00:53:05;71.13;;;65.20;;
5710;SDS011;61291;52.524;13.422;2024-02-21T00:55:30;76.50;;;69.13;;
5710;SDS011;61291;52.524;13.422;2024-02-21T00:57:56;71.83;;;66.23;;
5710;SDS011;61291;52.524;13.422;2024-02-21T01:00:21;64.67;;;58.77;;
5710;SDS011;61291;52.524;13.422;2024-02-21T01:02:47;78.23;;;70.90;;
5710;SDS011;61291;52.524;13.422;2024-02-21T01:05:12;74.07;;;68.10;;
5710;SDS011;61291;52.524;13.422;2024-02-21T01:07:38;73.13;;;67.33;;
5710;SDS011;61291;52.524;13.422;2024-02-21T01:10:04;74.50;;;68.37;;
5710;SDS011;61291;52.524;13.422;2024-02-21T01:12:30;75.00;;;68.20;;
5710;SDS011;61291;52.524;13.422;2024-02-21T01:14:55;72.47;;;66.60;;
5710;SDS011;61291;52.524;13.422;2024-02-21T01:17:20;72.60;;;66.30;;
5710;SDS011;61291;52.524;13.422;2024-02-21T01:19:46;76.03;;;69.33;;
5710;SDS011;61291;52.524;13.422;2024-02-21T01:22:12;78.57;;;71.43;;
5710;SDS011;61291;52.524;13.422;2024-02-21T01:24:37;72.43;;;67.00;;
5710;SDS011;61291;52.524;13.422;2024-02-21T01:27:03;73.90;;;67.80;;
5710;SDS011;61291;52.524;13.422;2024-02-21T01:29:28;74.10;;;68.20;;
5710;SDS011;61291;52.524;13.422;2024-02-21T01:31:54;74.37;;;68.53;;
5710;SDS011;61291;52.524;13.422;2024-02-21T01:34:19;73.83;;;67.30;;
5710;SDS011;61291;52.524;13.422;2024-02-21T01:36:45;74.40;;;67.77;;
5710;SDS011;61291;52.524;13.422;2024-02-21T01:39:10;58.80;;;53.70;;
5710;SDS011;61291;52.524;13.422;2024-02-21T01:41:35;75.00;;;68.60;;
5710;SDS011;61291;52.524;13.422;2024-02-21T01:44:01;74.23;;;67.63;;
5710;SDS011;61291;52.524;13.422;2024-02-21T01:46:26;65.97;;;60.50;;
5710;SDS011;61291;52.524;13.422;2024-02-21T01:48:54;72.80;;;66.90;;
5710;SDS011;61291;52.524;13.422;2024-02-21T01:51:20;72.00;;;66.07;;
5710;SDS011;61291;52.524;13.422;2024-02-21T01:53:46;69.40;;;63.10;;
5710;SDS011;61291;52.524;13.422;2024-02-21T01:56:12;68.50;;;63.00;;
5710;SDS011;61291;52.524;13.422;2024-02-21T01:58:38;69.17;;;63.57;;
5710;SDS011;61291;52.524;13.422;2024-02-21T02:01:05;71.10;;;65.00;;
5710;SDS011;61291;52.524;13.422;2024-02-21T02:03:31;73.37;;;66.23;;
5710;SDS011;61291;52.524;13.422;2024-02-21T02:05:57;73.03;;;66.57;;
5710;SDS011;61291;52.524;13.422;2024-02-21T02:08:22;72.97;;;66.50;;
5710;SDS011;61291;52.524;13.422;2024-02-21T02:10:48;72.87;;;67.30;;
5710;SDS011;61291;52.524;13.422;2024-02-21T02:13:13;73.73;;;67.80;;
5710;SDS011;61291;52.524;13.422;2024-02-21T02:15:40;74.33;;;67.93;;
5710;SDS011;61291;52.524;13.422;2024-02-21T02:18:06;70.60;;;64.87;;
5710;SDS011;61291;52.524;13.422;2024-02-21T02:20:31;72.97;;;66.13;;
5710;SDS011;61291;52.524;13.422;2024-02-21T02:22:58;72.17;;;66.30;;
5710;SDS011;61291;52.524;13.422;2024-02-21T02:25:25;74.90;;;67.50;;
5710;SDS011;61291;52.524;13.422;2024-02-21T02:27:51;72.03;;;65.53;;
5710;SDS011;61291;52.524;13.422;2024-02-21T02:30:17;72.10;;;65.80;;
5710;SDS011;61291;52.524;13.422;2024-02-21T02:32:45;73.20;;;66.53;;
5710;SDS011;61291;52.524;13.422;2024-02-21T02:35:11;71.13;;;65.17;;
5710;SDS011;61291;52.524;13.422;2024-02-21T02:37:37;72.63;;;65.83;;
5710;SDS011;61291;52.524;13.422;2024-02-21T02:43:32;74.63;;;67.33;;
5710;SDS011;61291;52.524;13.422;2024-02-21T02:45:57;75.47;;;67.80;;
5710;SDS011;61291;52.524;13.422;2024-02-21T02:48:23;70.07;;;64.60;;
5710;SDS011;61291;52.524;13.422;2024-02-21T02:50:48;72.00;;;65.40;;
5710;SDS011;61291;52.524;13.422;2024-02-21T02:53:14;71.97;;;65.07;;
5710;SDS011;61291;52.524;13.422;2024-02-21T02:55:40;63.47;;;58.13;;
5710;SDS011;61291;52.524;13.422;2024-02-21T02:58:05;76.50;;;69.70;;
5710;SDS011;61291;52.524;13.422;2024-02-21T03:00:31;77.23;;;70.30;;
5710;SDS011;61291;52.524;13.422;2024-02-21T03:03:00;77.53;;;71.33;;
5710;SDS011;61291;52.524;13.422;2024-02-21T03:05:28;77.73;;;70.73;;
5710;SDS011;61291;52.524;13.422;2024-02-21T03:07:54;77.07;;;71.00;;
5710;SDS011;61291;52.524;13.422;2024-02-21T03:10:20;76.80;;;69.90;;
5710;SDS011;61291;52.524;13.422;2024-02-21T03:12:46;77.43;;;70.70;;
5710;SDS011;61291;52.524;13.422;2024-02-21T03:15:11;75.90;;;69.67;;
5710;SDS011;61291;52.524;13.422;2024-02-21T03:17:38;77.07;;;70.13;;
5710;SDS011;61291;52.524;13.422;2024-02-21T03:20:04;79.17;;;71.87;;
5710;SDS011;61291;52.524;13.422;2024-02-21T03:22:30;81.83;;;74.47;;
5710;SDS011;61291;52.524;13.422;2024-02-21T03:24:57;77.67;;;71.17;;
5710;SDS011;61291;52.524;13.422;2024-02-21T03:27:22;80.30;;;72.93;;
5710;SDS011;61291;52.524;13.422;2024-02-21T03:29:48;82.50;;;74.40;;
5710;SDS011;61291;52.524;13.422;2024-02-21T03:32:13;79.57;;;72.43;;
5710;SDS011;61291;52.524;13.422;2024-02-21T03:34:39;79.67;;;72.27;;
5710;SDS011;61291;52.524;13.422;2024-02-21T03:37:04;82.13;;;75.33;;
5710;SDS011;61291;52.524;13.422;2024-02-21T03:39:33;82.30;;;74.37;;
5710;SDS011;61291;52.524;13.422;2024-02-21T03:41:58;80.97;;;73.37;;
5710;SDS011;61291;52.524;13.422;2024-02-21T03:44:30;83.03;;;75.27;;
5710;SDS011;61291;52.524;13.422;2024-02-21T03:46:56;84.10;;;76.83;;
5710;SDS011;61291;52.524;13.422;2024-02-21T03:49:21;85.40;;;77.10;;
5710;SDS011;61291;52.524;13.422;2024-02-21T03:51:47;79.93;;;72.87;;
5710;SDS011;61291;52.524;13.422;2024-02-21T03:54:12;81.80;;;73.93;;
5710;SDS011;61291;52.524;13.422;2024-02-21T03:56:38;82.00;;;74.23;;
5710;SDS011;61291;52.524;13.422;2024-02-21T03:59:06;86.30;;;75.87;;
5710;SDS011;61291;52.524;13.422;2024-02-21T04:01:33;83.67;;;75.23;;
5710;SDS011;61291;52.524;13.422;2024-02-21T04:04:01;81.87;;;72.83;;
5710;SDS011;61291;52.524;13.422;2024-02-21T04:06:27;85.33;;;76.80;;
5710;SDS011;61291;52.524;13.422;2024-02-21T04:08:53;79.13;;;70.80;;
5710;SDS011;61291;52.524;13.422;2024-02-21T04:11:19;80.93;;;72.60;;
5710;SDS011;61291;52.524;13.422;2024-02-21T04:13:45;73.30;;;65.80;;
5710;SDS011;61291;52.524;13.422;2024-02-21T04:16:13;79.67;;;71.77;;
5710;SDS011;61291;52.524;13.422;2024-02-21T04:18:39;79.20;;;72.47;;
5710;SDS011;61291;52.524;13.422;2024-02-21T04:21:05;79.77;;;72.10;;
5710;SDS011;61291;52.524;13.422;2024-02-21T04:23:30;82.20;;;72.80;;
5710;SDS011;61291;52.524;13.422;2024-02-21T04:25:56;81.60;;;73.90;;
5710;SDS011;61291;52.524;13.422;2024-02-21T04:28:21;77.10;;;71.03;;
5710;SDS011;61291;52.524;13.422;2024-02-21T04:30:46;82.97;;;74.57;;
5710;SDS011;61291;52.524;13.422;2024-02-21T04:33:12;80.37;;;72.03;;
5710;SDS011;61291;52.524;13.422;2024-02-21T04:35:37;78.37;;;71.07;;
5710;SDS011;61291;52.524;13.422;2024-02-21T04:38:04;83.03;;;74.07;;
5710;SDS011;61291;52.524;13.422;2024-02-21T04:40:29;80.77;;;72.70;;
5710;SDS011;61291;52.524;13.422;2024-02-21T04:42:55;78.50;;;70.87;;
5710;SDS011;61291;52.524;13.422;2024-02-21T04:45:21;81.73;;;71.17;;
5710;SDS011;61291;52.524;13.422;2024-02-21T04:47:47;77.77;;;70.40;;
5710;SDS011;61291;52.524;13.422;2024-02-21T04:50:12;80.93;;;72.90;;
5710;SDS011;61291;52.524;13.422;2024-02-21T04:52:38;80.57;;;73.57;;
5710;SDS011;61291;52.524;13.422;2024-02-21T04:55:03;82.67;;;74.27;;
5710;SDS011;61291;52.524;13.422;2024-02-21T04:57:29;82.40;;;74.83;;
5710;SDS011;61291;52.524;13.422;2024-02-21T04:59:54;82.47;;;70.40;;
5710;SDS011;61291;52.524;13.422;2024-02-21T05:02:20;79.20;;;71.40;;
5710;SDS011;61291;52.524;13.422;2024-02-21T05:04:47;77.97;;;69.93;;
5710;SDS011;61291;52.524;13.422;2024-02-21T05:07:13;81.47;;;74.23;;
5710;SDS011;61291;52.524;13.422;2024-02-21T05:09:38;80.50;;;72.37;;
5710;SDS011;61291;52.524;13.422;2024-02-21T05:12:04;77.93;;;70.40;;
5710;SDS011;61291;52.524;13.422;2024-02-21T05:14:29;78.90;;;71.40;;
5710;SDS011;61291;52.524;13.422;2024-02-21T05:16:55;81.90;;;74.13;;
5710;SDS011;61291;52.524;13.422;2024-02-21T05:19:20;77.20;;;69.20;;
5710;SDS011;61291;52.524;13.422;2024-02-21T05:21:46;78.17;;;70.70;;
5710;SDS011;61291;52.524;13.422;2024-02-21T05:24:11;76.87;;;69.37;;
5710;SDS011;61291;52.524;13.422;2024-02-21T05:26:37;79.20;;;71.70;;
5710;SDS011;61291;52.524;13.422;2024-02-21T05:29:02;82.27;;;74.37;;
5710;SDS011;61291;52.524;13.422;2024-02-21T05:31:42;77.40;;;70.07;;
5710;SDS011;61291;52.524;13.422;2024-02-21T05:34:16;69.20;;;60.65;;
5710;SDS011;61291;52.524;13.422;2024-02-21T05:36:42;80.43;;;72.80;;
5710;SDS011;61291;52.524;13.422;2024-02-21T05:39:07;78.37;;;71.97;;
5710;SDS011;61291;52.524;13.422;2024-02-21T05:41:32;83.53;;;75.47;;
5710;SDS011;61291;52.524;13.422;2024-02-21T05:43:58;83.73;;;75.43;;
5710;SDS011;61291;52.524;13.422;2024-02-21T05:46:23;80.10;;;72.63;;
5710;SDS011;61291;52.524;13.422;2024-02-21T05:48:49;73.30;;;66.33;;
5710;SDS011;61291;52.524;13.422;2024-02-21T05:51:15;75.63;;;68.03;;
5710;SDS011;61291;52.524;13.422;2024-02-21T05:53:40;92.33;;;74.30;;
5710;SDS011;61291;52.524;13.422;2024-02-21T05:56:12;77.33;;;69.83;;
5710;SDS011;61291;52.524;13.422;2024-02-21T05:58:38;83.47;;;74.97;;
5710;SDS011;61291;52.524;13.422;2024-02-21T06:01:04;75.33;;;69.33;;
5710;SDS011;61291;52.524;13.422;2024-02-21T06:03:31;79.77;;;72.80;;
5710;SDS011;61291;52.524;13.422;2024-02-21T06:05:57;78.70;;;71.07;;
5710;SDS011;61291;52.524;13.422;2024-02-21T06:08:24;78.00;;;69.90;;
5710;SDS011;61291;52.524;13.422;2024-02-21T06:10:49;83.97;;;75.93;;
5710;SDS011;61291;52.524;13.422;2024-02-21T06:13:18;81.67;;;73.53;;
5710;SDS011;61291;52.524;13.422;2024-02-21T06:15:46;83.40;;;75.50;;
5710;SDS011;61291;52.524;13.422;2024-02-21T06:18:11;79.90;;;71.07;;
5710;SDS011;61291;52.524;13.422;2024-02-21T06:20:37;85.43;;;76.93;;
5710;SDS011;61291;52.524;13.422;2024-02-21T06:23:05;72.03;;;61.83;;
5710;SDS011;61291;52.524;13.422;2024-02-21T06:25:31;82.60;;;73.97;;
5710;SDS011;61291;52.524;13.422;2024-02-21T06:27:56;76.90;;;69.10;;
5710;SDS011;61291;52.524;13.422;2024-02-21T06:30:21;83.03;;;75.47;;
5710;SDS011;61291;52.524;13.422;2024-02-21T06:32:47;86.37;;;77.60;;
5710;SDS011;61291;52.524;13.422;2024-02-21T06:35:12;83.73;;;75.37;;
5710;SDS011;61291;52.524;13.422;2024-02-21T06:37:38;86.93;;;79.10;;
5710;SDS011;61291;52.524;13.422;2024-02-21T06:40:04;84.90;;;77.40;;
5710;SDS011;61291;52.524;13.422;2024-02-21T06:42:30;79.57;;;72.00;;
5710;SDS011;61291;52.524;13.422;2024-02-21T06:44:55;82.97;;;75.07;;
5710;SDS011;61291;52.524;13.422;2024-02-21T06:47:21;79.07;;;71.30;;
5710;SDS011;61291;52.524;13.422;2024-02-21T06:49:50;77.33;;;70.30;;
5710;SDS011;61291;52.524;13.422;2024-02-21T06:52:19;79.27;;;71.37;;
5710;SDS011;61291;52.524;13.422;2024-02-21T06:54:45;77.10;;;69.83;;
5710;SDS011;61291;52.524;13.422;2024-02-21T06:57:12;81.23;;;72.20;;
5710;SDS011;61291;52.524;13.422;2024-02-21T06:59:38;78.47;;;71.00;;
5710;SDS011;61291;52.524;13.422;2024-02-21T07:02:03;80.03;;;71.77;;
5710;SDS011;61291;52.524;13.422;2024-02-21T07:04:29;85.23;;;74.27;;
5710;SDS011;61291;52.524;13.422;2024-02-21T07:06:54;83.37;;;75.50;;
5710;SDS011;61291;52.524;13.422;2024-02-21T07:09:20;86.00;;;77.40;;
5710;SDS011;61291;52.524;13.422;2024-02-21T07:11:45;86.10;;;77.60;;
5710;SDS011;61291;52.524;13.422;2024-02-21T07:14:10;87.10;;;79.27;;
5710;SDS011;61291;52.524;13.422;2024-02-21T07:16:36;87.63;;;80.03;;
5710;SDS011;61291;52.524;13.422;2024-02-21T07:19:02;86.03;;;77.40;;
5710;SDS011;61291;52.524;13.422;2024-02-21T07:21:27;94.17;;;85.00;;
5710;SDS011;61291;52.524;13.422;2024-02-21T07:23:53;87.20;;;79.90;;
5710;SDS011;61291;52.524;13.422;2024-02-21T07:26:18;88.87;;;80.43;;
5710;SDS011;61291;52.524;13.422;2024-02-21T07:28:44;92.43;;;83.77;;
5710;SDS011;61291;52.524;13.422;2024-02-21T07:31:09;90.10;;;81.80;;
5710;SDS011;61291;52.524;13.422;2024-02-21T07:33:35;85.63;;;78.53;;
5710;SDS011;61291;52.524;13.422;2024-02-21T07:36:00;86.10;;;78.87;;
5710;SDS011;61291;52.524;13.422;2024-02-21T07:38:26;81.20;;;74.20;;
5710;SDS011;61291;52.524;13.422;2024-02-21T07:40:51;87.23;;;78.67;;
5710;SDS011;61291;52.524;13.422;2024-02-21T07:43:17;86.57;;;78.60;;
5710;SDS011;61291;52.524;13.422;2024-02-21T07:45:42;83.93;;;76.73;;
5710;SDS011;61291;52.524;13.422;2024-02-21T07:48:08;88.33;;;81.33;;
5710;SDS011;61291;52.524;13.422;2024-02-21T07:50:33;83.77;;;76.37;;
5710;SDS011;61291;52.524;13.422;2024-02-21T07:52:59;90.00;;;82.23;;
5710;SDS011;61291;52.524;13.422;2024-02-21T07:55:24;84.67;;;77.73;;
5710;SDS011;61291;52.524;13.422;2024-02-21T07:57:50;84.67;;;76.93;;
5710;SDS011;61291;52.524;13.422;2024-02-21T08:00:15;86.13;;;78.67;;
5710;SDS011;61291;52.524;13.422;2024-02-21T08:02:50;87.63;;;81.03;;
5710;SDS011;61291;52.524;13.422;2024-02-21T08:05:16;88.27;;;80.13;;
5710;SDS011;61291;52.524;13.422;2024-02-21T08:07:41;84.43;;;77.60;;
5710;SDS011;61291;52.524;13.422;2024-02-21T08:10:07;87.33;;;80.03;;
5710;SDS011;61291;52.524;13.422;2024-02-21T08:12:33;85.20;;;77.77;;
5710;SDS011;61291;52.524;13.422;2024-02-21T08:14:58;85.90;;;78.00;;
5710;SDS011;61291;52.524;13.422;2024-02-21T08:17:24;81.77;;;74.53;;
5710;SDS011;61291;52.524;13.422;2024-02-21T08:19:50;89.07;;;81.60;;
5710;SDS011;61291;52.524;13.422;2024-02-21T08:22:16;86.03;;;79.33;;
5710;SDS011;61291;52.524;13.422;2024-02-21T08:24:41;86.67;;;79.90;;
5710;SDS011;61291;52.524;13.422;2024-02-21T08:27:07;88.57;;;79.90;;
5710;SDS011;61291;52.524;13.422;2024-02-21T08:29:32;90.53;;;82.83;;
5710;SDS011;61291;52.524;13.422;2024-02-21T08:31:58;87.27;;;80.20;;
5710;SDS011;61291;52.524;13.422;2024-02-21T08:34:23;85.37;;;78.13;;
5710;SDS011;61291;52.524;13.422;2024-02-21T08:36:49;82.37;;;76.27;;
5710;SDS011;61291;52.524;13.422;2024-02-21T08:39:14;89.77;;;82.77;;
5710;SDS011;61291;52.524;13.422;2024-02-21T08:41:41;91.07;;;83.57;;
5710;SDS011;61291;52.524;13.422;2024-02-21T08:44:07;88.70;;;81.60;;
5710;SDS011;61291;52.524;13.422;2024-02-21T08:46:32;85.57;;;78.10;;
5710;SDS011;61291;52.524;13.422;2024-02-21T08:48:58;87.63;;;79.53;;
5710;SDS011;61291;52.524;13.422;2024-02-21T08:51:23;90.37;;;82.70;;
5710;SDS011;61291;52.524;13.422;2024-02-21T08:53:49;88.03;;;81.50;;
5710;SDS011;61291;52.524;13.422;2024-02-21T08:56:15;80.63;;;73.77;;
5710;SDS011;61291;52.524;13.422;2024-02-21T08:58:41;83.27;;;75.60;;
5710;SDS011;61291;52.524;13.422;2024-02-21T09:01:06;83.57;;;76.37;;
5710;SDS011;61291;52.524;13.422;2024-02-21T09:03:35;82.27;;;75.83;;
5710;SDS011;61291;52.524;13.422;2024-02-21T09:06:02;80.90;;;73.40;;
5710;SDS011;61291;52.524;13.422;2024-02-21T09:08:28;79.67;;;71.83;;
5710;SDS011;61291;52.524;13.422;2024-02-21T09:10:53;79.97;;;73.43;;
5710;SDS011;61291;52.524;13.422;2024-02-21T09:13:19;79.67;;;73.20;;
5710;SDS011;61291;52.524;13.422;2024-02-21T09:15:44;86.60;;;79.90;;
5710;SDS011;61291;52.524;13.422;2024-02-21T09:18:10;84.60;;;77.47;;
5710;SDS011;61291;52.524;13.422;2024-02-21T09:20:35;85.20;;;77.37;;
5710;SDS011;61291;52.524;13.422;2024-02-21T09:23:01;83.93;;;76.93;;
5710;SDS011;61291;52.524;13.422;2024-02-21T09:25:26;85.77;;;76.07;;
5710;SDS011;61291;52.524;13.422;2024-02-21T09:27:53;82.90;;;75.00;;
5710;SDS011;61291;52.524;13.422;2024-02-21T09:30:19;83.03;;;76.17;;
5710;SDS011;61291;52.524;13.422;2024-02-21T09:32:45;80.83;;;74.37;;
5710;SDS011;61291;52.524;13.422;2024-02-21T09:35:10;84.10;;;77.40;;
5710;SDS011;61291;52.524;13.422;2024-02-21T09:37:37;85.30;;;78.80;;
5710;SDS011;61291;52.524;13.422;2024-02-21T09:40:03;84.20;;;76.10;;
5710;SDS011;61291;52.524;13.422;2024-02-21T09:42:34;80.63;;;74.37;;
5710;SDS011;61291;52.524;13.422;2024-02-21T09:45:04;85.87;;;78.07;;
5710;SDS011;61291;52.524;13.422;2024-02-21T09:47:35;89.37;;;82.03;;
5710;SDS011;61291;52.524;13.422;2024-02-21T09:50:11;86.03;;;78.53;;
5710;SDS011;61291;52.524;13.422;2024-02-21T09:52:38;84.93;;;77.73;;
5710;SDS011;61291;52.524;13.422;2024-02-21T09:55:05;86.47;;;79.60;;
5710;SDS011;61291;52.524;13.422;2024-02-21T09:57:33;80.77;;;74.00;;
5710;SDS011;61291;52.524;13.422;2024-02-21T09:59:58;86.50;;;78.83;;
5710;SDS011;61291;52.524;13.422;2024-02-21T10:02:32;77.67;;;71.17;;
5710;SDS011;61291;52.524;13.422;2024-02-21T10:04:57;83.20;;;76.57;;
5710;SDS011;61291;52.524;13.422;2024-02-21T10:07:23;86.50;;;80.13;;
5710;SDS011;61291;52.524;13.422;2024-02-21T10:09:59;83.03;;;76.63;;
5710;SDS011;61291;52.524;13.422;2024-02-21T10:12:28;86.57;;;79.63;;
5710;SDS011;61291;52.524;13.422;2024-02-21T10:14:59;83.23;;;77.10;;
5710;SDS011;61291;52.524;13.422;2024-02-21T10:17:28;86.30;;;79.20;;
5710;SDS011;61291;52.524;13.422;2024-02-21T10:19:54;88.03;;;80.63;;
5710;SDS011;61291;52.524;13.422;2024-02-21T10:22:19;85.23;;;79.03;;
5710;SDS011;61291;52.524;13.422;2024-02-21T10:24:50;82.97;;;75.83;;
5710;SDS011;61291;52.524;13.422;2024-02-21T10:27:15;80.83;;;75.30;;
5710;SDS011;61291;52.524;13.422;2024-02-21T10:29:41;80.47;;;73.70;;
5710;SDS011;61291;52.524;13.422;2024-02-21T10:32:10;86.70;;;80.00;;
5710;SDS011;61291;52.524;13.422;2024-02-21T10:34:37;84.37;;;77.60;;
5710;SDS011;61291;52.524;13.422;2024-02-21T10:37:04;84.07;;;76.97;;
5710;SDS011;61291;52.524;13.422;2024-02-21T10:39:31;81.87;;;75.27;;
5710;SDS011;61291;52.524;13.422;2024-02-21T10:41:59;82.93;;;76.17;;
5710;SDS011;61291;52.524;13.422;2024-02-21T10:44:28;75.00;;;69.30;;
5710;SDS011;61291;52.524;13.422;2024-02-21T10:46:55;77.47;;;71.47;;
5710;SDS011;61291;52.524;13.422;2024-02-21T10:49:25;78.30;;;71.40;;
5710;SDS011;61291;52.524;13.422;2024-02-21T10:52:06;83.27;;;76.00;;
5710;SDS011;61291;52.524;13.422;2024-02-21T10:55:09;76.73;;;70.83;;
5710;SDS011;61291;52.524;13.422;2024-02-21T10:57:40;76.10;;;70.70;;
5710;SDS011;61291;52.524;13.422;2024-02-21T11:00:06;72.97;;;67.30;;
5710;SDS011;61291;52.524;13.422;2024-02-21T11:02:33;74.13;;;68.50;;
5710;SDS011;61291;52.524;13.422;2024-02-21T11:04:59;70.47;;;64.60;;
5710;SDS011;61291;52.524;13.422;2024-02-21T11:07:26;67.77;;;62.83;;
5710;SDS011;61291;52.524;13.422;2024-02-21T11:09:52;67.47;;;62.40;;
5710;SDS011;61291;52.524;13.422;2024-02-21T11:12:20;73.20;;;66.93;;
5710;SDS011;61291;52.524;13.422;2024-02-21T11:14:46;72.47;;;66.37;;
5710;SDS011;61291;52.524;13.422;2024-02-21T11:17:15;69.20;;;63.90;;
5710;SDS011;61291;52.524;13.422;2024-02-21T11:19:42;70.40;;;65.10;;
5710;SDS011;61291;52.524;13.422;2024-02-21T11:22:13;74.90;;;69.00;;
5710;SDS011;61291;52.524;13.422;2024-02-21T11:24:43;71.83;;;65.90;;
5710;SDS011;61291;52.524;13.422;2024-02-21T11:27:12;70.50;;;64.87;;
5710;SDS011;61291;52.524;13.422;2024-02-21T11:29:45;69.83;;;64.83;;
5710;SDS011;61291;52.524;13.422;2024-02-21T11:32:18;74.30;;;68.70;;
5710;SDS011;61291;52.524;13.422;2024-02-21T11:35:01;73.33;;;67.20;;
5710;SDS011;61291;52.524;13.422;2024-02-21T11:37:30;75.83;;;70.33;;
5710;SDS011;61291;52.524;13.422;2024-02-21T11:39:58;71.43;;;65.93;;
5710;SDS011;61291;52.524;13.422;2024-02-21T11:42:24;74.73;;;69.03;;
5710;SDS011;61291;52.524;13.422;2024-02-21T11:44:51;70.93;;;65.60;;
5710;SDS011;61291;52.524;13.422;2024-02-21T11:47:17;75.07;;;68.63;;
5710;SDS011;61291;52.524;13.422;2024-02-21T11:49:44;73.67;;;68.20;;
5710;SDS011;61291;52.524;13.422;2024-02-21T11:52:11;75.13;;;69.37;;
5710;SDS011;61291;52.524;13.422;2024-02-21T11:54:40;75.17;;;69.40;;
5710;SDS011;61291;52.524;13.422;2024-02-21T11:57:06;73.77;;;68.37;;
5710;SDS011;61291;52.524;13.422;2024-02-21T11:59:32;71.20;;;66.27;;
5710;SDS011;61291;52.524;13.422;2024-02-21T12:01:59;73.43;;;67.27;;
5710;SDS011;61291;52.524;13.422;2024-02-21T12:04:25;72.40;;;66.40;;
5710;SDS011;61291;52.524;13.422;2024-02-21T12:06:54;76.30;;;71.00;;
5710;SDS011;61291;52.524;13.422;2024-02-21T12:09:22;70.93;;;65.60;;
5710;SDS011;61291;52.524;13.422;2024-02-21T12:11:56;71.40;;;66.20;;
5710;SDS011;61291;52.524;13.422;2024-02-21T12:14:30;71.37;;;66.40;;
5710;SDS011;61291;52.524;13.422;2024-02-21T12:16:56;68.40;;;63.50;;
5710;SDS011;61291;52.524;13.422;2024-02-21T12:19:22;69.20;;;63.87;;
5710;SDS011;61291;52.524;13.422;2024-02-21T12:21:48;74.77;;;69.07;;
5710;SDS011;61291;52.524;13.422;2024-02-21T12:24:27;71.93;;;66.83;;
5710;SDS011;61291;52.524;13.422;2024-02-21T12:26:54;73.80;;;68.20;;
5710;SDS011;61291;52.524;13.422;2024-02-21T12:29:21;75.40;;;69.80;;
5710;SDS011;61291;52.524;13.422;2024-02-21T12:31:48;74.90;;;69.67;;
5710;SDS011;61291;52.524;13.422;2024-02-21T12:34:14;78.30;;;72.20;;
5710;SDS011;61291;52.524;13.422;2024-02-21T12:36:41;74.43;;;68.97;;
5710;SDS011;61291;52.524;13.422;2024-02-21T12:39:08;81.93;;;76.00;;
5710;SDS011;61291;52.524;13.422;2024-02-21T12:41:34;74.33;;;68.90;;
5710;SDS011;61291;52.524;13.422;2024-02-21T12:44:03;74.73;;;69.10;;
5710;SDS011;61291;52.524;13.422;2024-02-21T12:46:35;72.20;;;66.80;;
5710;SDS011;61291;52.524;13.422;2024-02-21T12:49:01;71.77;;;66.77;;
5710;SDS011;61291;52.524;13.422;2024-02-21T12:51:28;72.13;;;66.87;;
5710;SDS011;61291;52.524;13.422;2024-02-21T12:53:54;81.63;;;75.03;;
5710;SDS011;61291;52.524;13.422;2024-02-21T12:56:21;77.30;;;72.00;;
5710;SDS011;61291;52.524;13.422;2024-02-21T12:58:46;80.60;;;75.07;;
5710;SDS011;61291;52.524;13.422;2024-02-21T13:01:12;81.90;;;75.23;;
5710;SDS011;61291;52.524;13.422;2024-02-21T13:03:37;75.93;;;70.50;;
5710;SDS011;61291;52.524;13.422;2024-02-21T13:06:03;75.80;;;70.70;;
5710;SDS011;61291;52.524;13.422;2024-02-21T13:08:29;76.47;;;71.17;;
5710;SDS011;61291;52.524;13.422;2024-02-21T13:10:55;77.40;;;71.87;;
5710;SDS011;61291;52.524;13.422;2024-02-21T13:13:20;74.67;;;69.37;;
5710;SDS011;61291;52.524;13.422;2024-02-21T13:15:46;76.60;;;70.93;;
5710;SDS011;61291;52.524;13.422;2024-02-21T13:18:11;72.38;;;66.82;;
5710;SDS011;61291;52.524;13.422;2024-02-21T13:20:37;72.67;;;67.03;;
5710;SDS011;61291;52.524;13.422;2024-02-21T13:23:03;79.60;;;73.67;;
5710;SDS011;61291;52.524;13.422;2024-02-21T13:25:28;72.80;;;67.60;;
5710;SDS011;61291;52.524;13.422;2024-02-21T13:27:54;77.37;;;70.77;;
5710;SDS011;61291;52.524;13.422;2024-02-21T13:30:21;73.00;;;67.53;;
5710;SDS011;61291;52.524;13.422;2024-02-21T13:32:47;76.10;;;70.03;;
5710;SDS011;61291;52.524;13.422;2024-02-21T13:35:13;76.67;;;71.37;;
5710;SDS011;61291;52.524;13.422;2024-02-21T13:37:40;77.47;;;71.77;;
5710;SDS011;61291;52.524;13.422;2024-02-21T13:40:06;77.77;;;71.80;;
5710;SDS011;61291;52.524;13.422;2024-02-21T13:42:35;70.67;;;65.37;;
5710;SDS011;61291;52.524;13.422;2024-02-21T13:45:04;72.07;;;66.90;;
5710;SDS011;61291;52.524;13.422;2024-02-21T13:47:31;74.97;;;69.40;;
5710;SDS011;61291;52.524;13.422;2024-02-21T13:49:57;77.53;;;70.50;;
5710;SDS011;61291;52.524;13.422;2024-02-21T13:52:22;75.00;;;68.90;;
5710;SDS011;61291;52.524;13.422;2024-02-21T13:54:51;77.77;;;71.93;;
5710;SDS011;61291;52.524;13.422;2024-02-21T13:57:16;72.67;;;66.20;;
5710;SDS011;61291;52.524;13.422;2024-02-21T13:59:42;72.13;;;67.07;;
5710;SDS011;61291;52.524;13.422;2024-02-21T14:02:08;69.30;;;63.90;;
5710;SDS011;61291;52.524;13.422;2024-02-21T14:04:34;72.73;;;67.33;;
5710;SDS011;61291;52.524;13.422;2024-02-21T14:06:59;73.97;;;68.07;;
5710;SDS011;61291;52.524;13.422;2024-02-21T14:09:25;69.73;;;64.53;;
5710;SDS011;61291;52.524;13.422;2024-02-21T14:11:51;72.03;;;66.50;;
5710;SDS011;61291;52.524;13.422;2024-02-21T14:14:17;74.70;;;69.20;;
5710;SDS011;61291;52.524;13.422;2024-02-21T14:16:42;74.80;;;69.33;;
5710;SDS011;61291;52.524;13.422;2024-02-21T14:19:07;78.87;;;72.80;;
5710;SDS011;61291;52.524;13.422;2024-02-21T14:21:33;73.80;;;68.27;;